sensor_id;sensor_type;location;lat;lon;timestamp;pressure;altitude;pressure_sealevel;temperature;humidity
46412;BME280;32113;42.012;24.870;2022-07-29T00:02:25;99064.47;;;24.51;54.25
46412;BME280;32113;42.012;24.870;2022-07-29T00:04:51;99070.53;;;24.26;54.66
46412;BME280;32113;42.012;24.870;2022-07-29T00:07:16;99058.16;;;24.28;54.59
46412;BME280;32113;42.012;24.870;2022-07-29T00:09:42;99058.69;;;24.20;55.02
46412;BME280;32113;42.012;24.870;2022-07-29T00:12:07;99063.03;;;24.07;55.55
46412;BME280;32113;42.012;24.870;2022-07-29T00:14:33;99053.72;;;24.02;55.84
46412;BME280;32113;42.012;24.870;2022-07-29T00:16:58;99044.25;;;24.00;55.81
46412;BME280;32113;42.012;24.870;2022-07-29T00:19:23;99041.63;;;23.87;55.88
46412;BME280;32113;42.012;24.870;2022-07-29T00:21:49;99038.38;;;23.83;56.14
46412;BME280;32113;42.012;24.870;2022-07-29T00:24:14;99040.97;;;23.83;56.11
46412;BME280;32113;42.012;24.870;2022-07-29T00:26:40;99041.19;;;23.80;56.46
46412;BME280;32113;42.012;24.870;2022-07-29T00:29:05;99042.13;;;23.79;56.82
46412;BME280;32113;42.012;24.870;2022-07-29T00:31:31;99040.81;;;23.99;56.19
46412;BME280;32113;42.012;24.870;2022-07-29T00:33:56;99030.69;;;24.21;55.57
46412;BME280;32113;42.012;24.870;2022-07-29T00:36:22;99025.03;;;24.27;55.41
46412;BME280;32113;42.012;24.870;2022-07-29T00:38:49;99021.25;;;24.31;54.98
46412;BME280;32113;42.012;24.870;2022-07-29T00:41:15;99024.53;;;24.48;54.48
46412;BME280;32113;42.012;24.870;2022-07-29T00:43:40;99022.19;;;24.56;53.73
46412;BME280;32113;42.012;24.870;2022-07-29T00:46:06;99027.97;;;24.61;53.23
46412;BME280;32113;42.012;24.870;2022-07-29T00:48:32;99022.09;;;24.58;53.23
46412;BME280;32113;42.012;24.870;2022-07-29T00:50:58;99027.13;;;24.48;53.16
46412;BME280;32113;42.012;24.870;2022-07-29T00:53:25;99029.25;;;24.43;52.92
46412;BME280;32113;42.012;24.870;2022-07-29T00:55:51;99027.25;;;24.46;52.56
46412;BME280;32113;42.012;24.870;2022-07-29T00:58:18;99024.09;;;24.54;52.55
46412;BME280;32113;42.012;24.870;2022-07-29T01:00:43;99020.22;;;24.60;52.44
46412;BME280;32113;42.012;24.870;2022-07-29T01:03:09;99023.34;;;24.65;52.07
46412;BME280;32113;42.012;24.870;2022-07-29T01:05:35;99019.78;;;24.53;52.58
46412;BME280;32113;42.012;24.870;2022-07-29T01:08:01;99025.44;;;24.60;52.58
46412;BME280;32113;42.012;24.870;2022-07-29T01:10:27;99029.34;;;24.54;52.87
46412;BME280;32113;42.012;24.870;2022-07-29T01:12:57;99020.53;;;24.29;53.93
46412;BME280;32113;42.012;24.870;2022-07-29T01:15:23;99031.88;;;24.43;53.79
46412;BME280;32113;42.012;24.870;2022-07-29T01:29:13;99021.47;;;24.15;53.70
46412;BME280;32113;42.012;24.870;2022-07-29T01:32:04;99022.63;;;24.24;53.43
46412;BME280;32113;42.012;24.870;2022-07-29T01:34:35;99011.22;;;23.97;53.09
46412;BME280;32113;42.012;24.870;2022-07-29T01:39:35;99024.38;;;23.57;53.99
46412;BME280;32113;42.012;24.870;2022-07-29T01:45:24;99024.09;;;23.47;55.28
46412;BME280;32113;42.012;24.870;2022-07-29T01:50:40;99023.50;;;23.56;55.07
46412;BME280;32113;42.012;24.870;2022-07-29T01:53:12;99023.06;;;23.49;55.03
46412;BME280;32113;42.012;24.870;2022-07-29T01:55:43;99026.72;;;23.47;55.06
46412;BME280;32113;42.012;24.870;2022-07-29T01:58:10;99022.28;;;23.20;56.14
46412;BME280;32113;42.012;24.870;2022-07-29T02:00:37;99017.63;;;23.25;56.11
46412;BME280;32113;42.012;24.870;2022-07-29T02:03:07;99021.75;;;23.15;56.29
46412;BME280;32113;42.012;24.870;2022-07-29T02:05:35;99028.03;;;22.97;57.38
46412;BME280;32113;42.012;24.870;2022-07-29T02:08:02;99027.84;;;23.01;56.68
46412;BME280;32113;42.012;24.870;2022-07-29T02:10:31;99021.22;;;22.95;56.53
46412;BME280;32113;42.012;24.870;2022-07-29T02:12:59;99018.81;;;22.92;56.57
46412;BME280;32113;42.012;24.870;2022-07-29T02:15:27;99025.84;;;22.77;56.72
46412;BME280;32113;42.012;24.870;2022-07-29T02:18:01;99024.88;;;22.78;56.56
46412;BME280;32113;42.012;24.870;2022-07-29T02:20:27;99020.31;;;22.67;56.76
46412;BME280;32113;42.012;24.870;2022-07-29T02:22:55;99018.47;;;22.54;57.32
46412;BME280;32113;42.012;24.870;2022-07-29T02:25:23;99016.59;;;22.56;57.86
46412;BME280;32113;42.012;24.870;2022-07-29T02:27:50;99019.66;;;22.49;59.23
46412;BME280;32113;42.012;24.870;2022-07-29T02:30:17;99014.88;;;22.41;59.69
46412;BME280;32113;42.012;24.870;2022-07-29T02:32:45;99010.22;;;22.46;58.42
46412;BME280;32113;42.012;24.870;2022-07-29T02:35:13;99007.41;;;22.49;56.97
46412;BME280;32113;42.012;24.870;2022-07-29T02:37:39;99007.38;;;22.35;58.74
46412;BME280;32113;42.012;24.870;2022-07-29T02:40:09;99002.66;;;22.56;58.48
46412;BME280;32113;42.012;24.870;2022-07-29T02:42:37;99011.97;;;22.45;58.69
46412;BME280;32113;42.012;24.870;2022-07-29T02:45:04;99011.50;;;22.53;57.78
46412;BME280;32113;42.012;24.870;2022-07-29T02:47:36;99007.03;;;22.41;57.55
46412;BME280;32113;42.012;24.870;2022-07-29T02:52:54;99016.47;;;22.29;57.38
46412;BME280;32113;42.012;24.870;2022-07-29T02:55:26;99007.59;;;22.31;57.65
46412;BME280;32113;42.012;24.870;2022-07-29T02:57:59;99013.75;;;22.30;57.94
46412;BME280;32113;42.012;24.870;2022-07-29T03:00:30;99007.59;;;22.31;57.92
46412;BME280;32113;42.012;24.870;2022-07-29T03:02:58;99009.66;;;22.41;57.55
46412;BME280;32113;42.012;24.870;2022-07-29T03:05:26;99014.50;;;22.33;57.60
46412;BME280;32113;42.012;24.870;2022-07-29T03:07:55;99014.88;;;22.41;57.13
46412;BME280;32113;42.012;24.870;2022-07-29T03:10:21;99016.00;;;22.37;57.00
46412;BME280;32113;42.012;24.870;2022-07-29T03:12:48;99025.69;;;22.35;56.67
46412;BME280;32113;42.012;24.870;2022-07-29T03:15:14;99025.50;;;22.23;56.74
46412;BME280;32113;42.012;24.870;2022-07-29T03:17:40;99018.13;;;22.30;56.59
46412;BME280;32113;42.012;24.870;2022-07-29T03:20:07;99025.97;;;22.30;56.50
46412;BME280;32113;42.012;24.870;2022-07-29T03:22:36;99027.09;;;22.26;57.12
46412;BME280;32113;42.012;24.870;2022-07-29T03:25:11;99015.78;;;22.25;56.46
46412;BME280;32113;42.012;24.870;2022-07-29T03:27:36;99035.78;;;22.26;55.93
46412;BME280;32113;42.012;24.870;2022-07-29T03:30:03;99032.50;;;22.37;55.23
46412;BME280;32113;42.012;24.870;2022-07-29T03:32:28;99038.31;;;22.42;55.08
46412;BME280;32113;42.012;24.870;2022-07-29T03:34:54;99029.44;;;22.45;55.31
46412;BME280;32113;42.012;24.870;2022-07-29T03:37:19;99035.59;;;22.44;55.48
46412;BME280;32113;42.012;24.870;2022-07-29T03:39:45;99033.66;;;22.33;55.90
46412;BME280;32113;42.012;24.870;2022-07-29T03:42:15;99036.34;;;22.31;56.22
46412;BME280;32113;42.012;24.870;2022-07-29T03:44:43;99038.19;;;22.44;55.91
46412;BME280;32113;42.012;24.870;2022-07-29T03:47:10;99043.25;;;22.33;56.17
46412;BME280;32113;42.012;24.870;2022-07-29T03:49:40;99038.09;;;22.31;56.48
46412;BME280;32113;42.012;24.870;2022-07-29T03:52:06;99036.63;;;22.41;56.47
46412;BME280;32113;42.012;24.870;2022-07-29T03:54:31;99040.72;;;22.45;56.32
46412;BME280;32113;42.012;24.870;2022-07-29T03:56:59;99048.66;;;22.44;56.12
46412;BME280;32113;42.012;24.870;2022-07-29T03:59:26;99039.44;;;22.38;56.43
46412;BME280;32113;42.012;24.870;2022-07-29T04:01:53;99051.09;;;22.47;55.87
46412;BME280;32113;42.012;24.870;2022-07-29T04:04:19;99058.75;;;22.36;56.31
46412;BME280;32113;42.012;24.870;2022-07-29T04:06:46;99047.53;;;22.48;55.77
46412;BME280;32113;42.012;24.870;2022-07-29T04:09:11;99060.94;;;22.58;54.88
46412;BME280;32113;42.012;24.870;2022-07-29T04:11:40;99052.53;;;22.67;54.88
46412;BME280;32113;42.012;24.870;2022-07-29T04:14:06;99053.56;;;22.94;54.38
46412;BME280;32113;42.012;24.870;2022-07-29T04:16:32;99064.19;;;22.91;54.66
46412;BME280;32113;42.012;24.870;2022-07-29T04:18:57;99065.13;;;22.90;54.78
46412;BME280;32113;42.012;24.870;2022-07-29T04:21:23;99062.63;;;22.88;55.17
46412;BME280;32113;42.012;24.870;2022-07-29T04:23:48;99060.22;;;22.85;55.23
46412;BME280;32113;42.012;24.870;2022-07-29T04:26:17;99066.16;;;22.87;54.95
46412;BME280;32113;42.012;24.870;2022-07-29T04:28:43;99066.63;;;22.94;55.17
46412;BME280;32113;42.012;24.870;2022-07-29T04:31:09;99055.50;;;23.05;55.05
46412;BME280;32113;42.012;24.870;2022-07-29T04:33:35;99054.16;;;23.12;54.29
46412;BME280;32113;42.012;24.870;2022-07-29T04:36:00;99061.66;;;23.18;53.91
46412;BME280;32113;42.012;24.870;2022-07-29T04:38:25;99065.19;;;23.17;53.98
46412;BME280;32113;42.012;24.870;2022-07-29T04:40:51;99070.63;;;23.14;53.92
46412;BME280;32113;42.012;24.870;2022-07-29T04:43:16;99057.81;;;23.09;53.63
46412;BME280;32113;42.012;24.870;2022-07-29T04:45:42;99057.56;;;23.14;53.79
46412;BME280;32113;42.012;24.870;2022-07-29T04:48:08;99065.09;;;23.19;53.75
46412;BME280;32113;42.012;24.870;2022-07-29T04:50:33;99068.75;;;23.16;54.10
46412;BME280;32113;42.012;24.870;2022-07-29T04:52:58;99060.41;;;23.24;54.07
46412;BME280;32113;42.012;24.870;2022-07-29T04:55:24;99070.59;;;23.43;53.53
46412;BME280;32113;42.012;24.870;2022-07-29T04:57:50;99067.88;;;23.45;52.77
46412;BME280;32113;42.012;24.870;2022-07-29T05:00:16;99073.47;;;23.53;53.11
46412;BME280;32113;42.012;24.870;2022-07-29T05:02:41;99075.78;;;23.58;53.22
46412;BME280;32113;42.012;24.870;2022-07-29T05:05:07;99087.59;;;23.78;52.12
46412;BME280;32113;42.012;24.870;2022-07-29T05:07:32;99081.22;;;23.82;52.15
46412;BME280;32113;42.012;24.870;2022-07-29T05:09:58;99077.06;;;24.06;51.30
46412;BME280;32113;42.012;24.870;2022-07-29T05:12:24;99086.16;;;24.14;51.00
46412;BME280;32113;42.012;24.870;2022-07-29T05:14:49;99077.84;;;24.08;51.67
46412;BME280;32113;42.012;24.870;2022-07-29T05:17:15;99081.44;;;24.20;51.12
46412;BME280;32113;42.012;24.870;2022-07-29T05:19:40;99078.53;;;24.50;50.48
46412;BME280;32113;42.012;24.870;2022-07-29T05:22:06;99080.19;;;24.64;49.92
46412;BME280;32113;42.012;24.870;2022-07-29T05:24:31;99078.19;;;24.68;49.08
46412;BME280;32113;42.012;24.870;2022-07-29T05:26:56;99083.25;;;24.71;49.34
46412;BME280;32113;42.012;24.870;2022-07-29T05:29:22;99085.66;;;24.61;49.54
46412;BME280;32113;42.012;24.870;2022-07-29T05:31:47;99077.16;;;24.45;49.87
46412;BME280;32113;42.012;24.870;2022-07-29T05:34:13;99079.78;;;24.45;50.01
46412;BME280;32113;42.012;24.870;2022-07-29T05:36:38;99077.28;;;24.69;49.66
46412;BME280;32113;42.012;24.870;2022-07-29T05:39:03;99091.31;;;24.68;49.74
46412;BME280;32113;42.012;24.870;2022-07-29T05:41:31;99083.56;;;24.92;49.44
46412;BME280;32113;42.012;24.870;2022-07-29T05:43:57;99085.94;;;25.09;48.85
46412;BME280;32113;42.012;24.870;2022-07-29T05:46:23;99089.38;;;25.22;48.23
46412;BME280;32113;42.012;24.870;2022-07-29T05:48:49;99094.09;;;25.30;48.48
46412;BME280;32113;42.012;24.870;2022-07-29T05:51:14;99101.00;;;25.31;48.18
46412;BME280;32113;42.012;24.870;2022-07-29T05:53:40;99097.50;;;25.43;47.89
46412;BME280;32113;42.012;24.870;2022-07-29T05:56:05;99096.91;;;25.40;47.79
46412;BME280;32113;42.012;24.870;2022-07-29T05:58:31;99097.88;;;25.26;48.10
46412;BME280;32113;42.012;24.870;2022-07-29T06:00:57;99095.25;;;25.26;48.31
46412;BME280;32113;42.012;24.870;2022-07-29T06:03:26;99097.56;;;25.30;47.77
46412;BME280;32113;42.012;24.870;2022-07-29T06:05:51;99112.56;;;25.28;48.09
46412;BME280;32113;42.012;24.870;2022-07-29T06:08:17;99097.81;;;25.14;47.84
46412;BME280;32113;42.012;24.870;2022-07-29T06:10:42;99104.94;;;25.12;48.54
46412;BME280;32113;42.012;24.870;2022-07-29T06:13:08;99104.53;;;25.18;47.97
46412;BME280;32113;42.012;24.870;2022-07-29T06:15:34;99105.19;;;25.33;47.57
46412;BME280;32113;42.012;24.870;2022-07-29T06:17:59;99104.44;;;25.44;47.46
46412;BME280;32113;42.012;24.870;2022-07-29T06:20:24;99102.31;;;25.50;47.84
46412;BME280;32113;42.012;24.870;2022-07-29T06:22:50;99093.13;;;25.68;47.49
46412;BME280;32113;42.012;24.870;2022-07-29T06:25:15;99094.88;;;25.81;47.17
46412;BME280;32113;42.012;24.870;2022-07-29T06:27:41;99096.97;;;26.00;46.84
46412;BME280;32113;42.012;24.870;2022-07-29T06:30:07;99099.41;;;26.15;46.22
46412;BME280;32113;42.012;24.870;2022-07-29T06:32:33;99100.03;;;26.18;45.84
46412;BME280;32113;42.012;24.870;2022-07-29T06:34:58;99085.50;;;26.37;45.80
46412;BME280;32113;42.012;24.870;2022-07-29T06:37:24;99085.88;;;26.55;45.40
46412;BME280;32113;42.012;24.870;2022-07-29T06:39:50;99092.25;;;26.75;45.08
46412;BME280;32113;42.012;24.870;2022-07-29T06:42:35;99087.69;;;26.89;44.42
46412;BME280;32113;42.012;24.870;2022-07-29T06:45:00;99091.53;;;26.96;44.10
46412;BME280;32113;42.012;24.870;2022-07-29T06:47:26;99087.94;;;27.09;43.59
46412;BME280;32113;42.012;24.870;2022-07-29T06:49:51;99083.19;;;27.02;43.28
46412;BME280;32113;42.012;24.870;2022-07-29T06:52:17;99079.00;;;27.00;43.47
46412;BME280;32113;42.012;24.870;2022-07-29T06:54:42;99080.53;;;27.14;44.06
46412;BME280;32113;42.012;24.870;2022-07-29T06:57:13;99078.38;;;27.08;42.81
46412;BME280;32113;42.012;24.870;2022-07-29T06:59:38;99075.72;;;27.19;43.33
46412;BME280;32113;42.012;24.870;2022-07-29T07:02:04;99074.28;;;27.26;42.54
46412;BME280;32113;42.012;24.870;2022-07-29T07:04:29;99081.69;;;27.44;41.71
46412;BME280;32113;42.012;24.870;2022-07-29T07:06:54;99074.47;;;27.46;42.05
46412;BME280;32113;42.012;24.870;2022-07-29T07:09:21;99072.63;;;27.58;42.34
46412;BME280;32113;42.012;24.870;2022-07-29T07:11:46;99080.16;;;27.74;41.83
46412;BME280;32113;42.012;24.870;2022-07-29T07:14:11;99075.88;;;27.94;41.92
46412;BME280;32113;42.012;24.870;2022-07-29T07:16:37;99081.41;;;28.13;41.18
46412;BME280;32113;42.012;24.870;2022-07-29T07:19:02;99069.41;;;28.41;40.24
46412;BME280;32113;42.012;24.870;2022-07-29T07:21:28;99067.69;;;28.62;40.46
46412;BME280;32113;42.012;24.870;2022-07-29T07:23:54;99065.22;;;28.70;39.50
46412;BME280;32113;42.012;24.870;2022-07-29T07:26:19;99076.34;;;28.95;38.62
46412;BME280;32113;42.012;24.870;2022-07-29T07:28:44;99067.34;;;29.17;39.10
46412;BME280;32113;42.012;24.870;2022-07-29T07:31:10;99075.03;;;29.40;37.81
46412;BME280;32113;42.012;24.870;2022-07-29T07:33:36;99074.81;;;29.63;37.83
46412;BME280;32113;42.012;24.870;2022-07-29T07:36:01;99076.22;;;29.87;36.93
46412;BME280;32113;42.012;24.870;2022-07-29T07:38:28;99076.34;;;30.15;36.04
46412;BME280;32113;42.012;24.870;2022-07-29T07:40:53;99073.66;;;30.35;35.79
46412;BME280;32113;42.012;24.870;2022-07-29T07:43:19;99069.81;;;30.57;35.30
46412;BME280;32113;42.012;24.870;2022-07-29T07:45:44;99064.47;;;30.77;35.34
46412;BME280;32113;42.012;24.870;2022-07-29T07:48:10;99060.66;;;30.89;34.88
46412;BME280;32113;42.012;24.870;2022-07-29T07:50:36;99059.41;;;31.12;33.34
46412;BME280;32113;42.012;24.870;2022-07-29T07:53:02;99062.38;;;31.27;32.80
46412;BME280;32113;42.012;24.870;2022-07-29T07:55:28;99053.94;;;31.41;32.87
46412;BME280;32113;42.012;24.870;2022-07-29T07:57:54;99058.84;;;31.54;32.48
46412;BME280;32113;42.012;24.870;2022-07-29T08:00:21;99056.56;;;31.78;32.76
46412;BME280;32113;42.012;24.870;2022-07-29T08:02:46;99057.56;;;31.95;31.90
46412;BME280;32113;42.012;24.870;2022-07-29T08:05:13;99052.84;;;32.07;31.65
46412;BME280;32113;42.012;24.870;2022-07-29T08:07:43;99052.25;;;32.21;31.16
46412;BME280;32113;42.012;24.870;2022-07-29T08:10:08;99054.69;;;32.41;30.25
46412;BME280;32113;42.012;24.870;2022-07-29T08:12:34;99049.13;;;32.53;30.27
46412;BME280;32113;42.012;24.870;2022-07-29T08:14:59;99047.50;;;32.60;29.35
46412;BME280;32113;42.012;24.870;2022-07-29T08:17:25;99047.50;;;32.60;29.20
46412;BME280;32113;42.012;24.870;2022-07-29T08:19:51;99046.25;;;32.72;28.82
46412;BME280;32113;42.012;24.870;2022-07-29T08:22:17;99051.94;;;32.86;28.76
46412;BME280;32113;42.012;24.870;2022-07-29T08:24:42;99047.97;;;32.98;29.39
46412;BME280;32113;42.012;24.870;2022-07-29T08:27:09;99047.72;;;33.10;29.16
46412;BME280;32113;42.012;24.870;2022-07-29T08:29:35;99062.53;;;33.29;28.05
46412;BME280;32113;42.012;24.870;2022-07-29T08:32:01;99053.91;;;33.43;26.13
46412;BME280;32113;42.012;24.870;2022-07-29T08:34:27;99056.78;;;33.59;26.84
46412;BME280;32113;42.012;24.870;2022-07-29T08:36:54;99057.94;;;33.73;25.77
46412;BME280;32113;42.012;24.870;2022-07-29T08:39:19;99048.47;;;33.78;24.57
46412;BME280;32113;42.012;24.870;2022-07-29T08:41:45;99053.78;;;33.78;24.28
46412;BME280;32113;42.012;24.870;2022-07-29T08:44:10;99046.16;;;33.75;25.65
46412;BME280;32113;42.012;24.870;2022-07-29T08:46:39;99054.75;;;33.44;25.23
46412;BME280;32113;42.012;24.870;2022-07-29T08:49:04;99044.13;;;33.52;25.04
46412;BME280;32113;42.012;24.870;2022-07-29T08:51:30;99038.41;;;33.14;24.32
46412;BME280;32113;42.012;24.870;2022-07-29T08:53:59;99037.44;;;33.32;25.00
46412;BME280;32113;42.012;24.870;2022-07-29T08:56:25;99034.47;;;33.51;24.62
46412;BME280;32113;42.012;24.870;2022-07-29T08:58:50;99030.53;;;33.72;23.77
46412;BME280;32113;42.012;24.870;2022-07-29T09:01:17;99022.19;;;33.92;24.49
46412;BME280;32113;42.012;24.870;2022-07-29T09:03:46;99030.34;;;34.15;24.64
46412;BME280;32113;42.012;24.870;2022-07-29T09:06:17;99014.44;;;34.39;23.44
46412;BME280;32113;42.012;24.870;2022-07-29T09:08:44;99006.44;;;34.47;23.54
46412;BME280;32113;42.012;24.870;2022-07-29T09:11:10;99011.72;;;34.55;23.29
46412;BME280;32113;42.012;24.870;2022-07-29T09:13:36;99006.38;;;34.64;24.01
46412;BME280;32113;42.012;24.870;2022-07-29T09:16:02;99011.63;;;34.80;23.43
46412;BME280;32113;42.012;24.870;2022-07-29T09:18:34;99018.13;;;34.78;22.80
46412;BME280;32113;42.012;24.870;2022-07-29T09:21:01;99013.88;;;34.60;23.34
46412;BME280;32113;42.012;24.870;2022-07-29T09:24:06;99007.22;;;34.64;23.52
46412;BME280;32113;42.012;24.870;2022-07-29T09:26:35;99010.31;;;34.76;23.00
46412;BME280;32113;42.012;24.870;2022-07-29T09:29:11;99000.56;;;34.92;23.22
46412;BME280;32113;42.012;24.870;2022-07-29T09:31:39;99003.13;;;35.08;23.20
46412;BME280;32113;42.012;24.870;2022-07-29T09:34:06;98992.09;;;35.11;21.38
46412;BME280;32113;42.012;24.870;2022-07-29T09:36:39;98992.94;;;34.89;21.08
46412;BME280;32113;42.012;24.870;2022-07-29T09:39:04;99003.78;;;34.87;22.69
46412;BME280;32113;42.012;24.870;2022-07-29T09:41:44;98996.19;;;34.99;22.79
46412;BME280;32113;42.012;24.870;2022-07-29T09:44:09;99003.59;;;35.20;23.09
46412;BME280;32113;42.012;24.870;2022-07-29T09:46:35;98990.84;;;35.31;22.24
46412;BME280;32113;42.012;24.870;2022-07-29T09:49:12;98990.59;;;35.41;23.26
46412;BME280;32113;42.012;24.870;2022-07-29T09:51:38;98983.63;;;35.55;22.62
46412;BME280;32113;42.012;24.870;2022-07-29T09:54:23;98980.06;;;35.62;22.65
46412;BME280;32113;42.012;24.870;2022-07-29T09:56:49;98984.41;;;35.63;21.93
46412;BME280;32113;42.012;24.870;2022-07-29T09:59:15;98979.75;;;35.81;21.55
46412;BME280;32113;42.012;24.870;2022-07-29T10:01:41;98983.63;;;35.78;21.72
46412;BME280;32113;42.012;24.870;2022-07-29T10:04:06;98986.75;;;35.82;21.45
46412;BME280;32113;42.012;24.870;2022-07-29T10:06:32;98984.09;;;35.97;20.78
46412;BME280;32113;42.012;24.870;2022-07-29T10:09:10;98984.00;;;35.90;18.98
46412;BME280;32113;42.012;24.870;2022-07-29T10:11:36;98981.97;;;35.92;20.64
46412;BME280;32113;42.012;24.870;2022-07-29T10:14:03;98982.88;;;35.84;20.85
46412;BME280;32113;42.012;24.870;2022-07-29T10:16:29;98981.34;;;35.90;21.04
46412;BME280;32113;42.012;24.870;2022-07-29T10:18:58;98975.25;;;35.96;21.44
46412;BME280;32113;42.012;24.870;2022-07-29T10:21:25;98985.22;;;35.87;21.44
46412;BME280;32113;42.012;24.870;2022-07-29T10:23:52;98983.63;;;35.93;22.23
46412;BME280;32113;42.012;24.870;2022-07-29T10:26:18;98973.03;;;36.00;21.29
46412;BME280;32113;42.012;24.870;2022-07-29T10:28:44;98980.94;;;35.93;21.73
46412;BME280;32113;42.012;24.870;2022-07-29T10:31:26;98977.91;;;35.66;21.80
46412;BME280;32113;42.012;24.870;2022-07-29T10:34:10;98972.03;;;35.47;21.97
46412;BME280;32113;42.012;24.870;2022-07-29T10:44:24;98958.34;;;35.50;22.59
46412;BME280;32113;42.012;24.870;2022-07-29T10:46:51;98957.31;;;35.36;22.34
46412;BME280;32113;42.012;24.870;2022-07-29T10:49:27;98949.13;;;35.38;22.92
46412;BME280;32113;42.012;24.870;2022-07-29T10:52:07;98956.78;;;35.56;22.41
46412;BME280;32113;42.012;24.870;2022-07-29T10:59:39;98933.13;;;35.53;22.20
46412;BME280;32113;42.012;24.870;2022-07-29T11:05:02;98934.06;;;35.60;22.15
46412;BME280;32113;42.012;24.870;2022-07-29T11:07:29;98929.75;;;35.59;22.04
46412;BME280;32113;42.012;24.870;2022-07-29T11:15:08;98919.22;;;35.66;21.76
46412;BME280;32113;42.012;24.870;2022-07-29T11:23:29;98913.50;;;35.31;22.21
46412;BME280;32113;42.012;24.870;2022-07-29T11:31:19;98915.16;;;35.85;23.43
46412;BME280;32113;42.012;24.870;2022-07-29T11:34:16;98909.47;;;35.88;22.61
46412;BME280;32113;42.012;24.870;2022-07-29T11:47:20;98894.84;;;35.84;22.20
46412;BME280;32113;42.012;24.870;2022-07-29T11:49:47;98898.88;;;35.65;22.28
46412;BME280;32113;42.012;24.870;2022-07-29T11:52:13;98884.34;;;35.68;22.62
46412;BME280;32113;42.012;24.870;2022-07-29T11:54:39;98881.66;;;35.68;23.32
46412;BME280;32113;42.012;24.870;2022-07-29T11:57:07;98885.72;;;35.63;23.68
46412;BME280;32113;42.012;24.870;2022-07-29T11:59:39;98879.28;;;35.73;22.98
46412;BME280;32113;42.012;24.870;2022-07-29T12:02:05;98884.34;;;35.83;23.28
46412;BME280;32113;42.012;24.870;2022-07-29T12:04:30;98880.38;;;35.79;23.33
46412;BME280;32113;42.012;24.870;2022-07-29T12:06:56;98882.78;;;35.88;24.42
46412;BME280;32113;42.012;24.870;2022-07-29T12:09:22;98883.97;;;35.86;23.30
46412;BME280;32113;42.012;24.870;2022-07-29T12:11:49;98880.19;;;35.65;23.95
46412;BME280;32113;42.012;24.870;2022-07-29T12:14:32;98874.56;;;35.60;23.27
46412;BME280;32113;42.012;24.870;2022-07-29T12:16:59;98884.56;;;35.43;23.61
46412;BME280;32113;42.012;24.870;2022-07-29T12:19:26;98871.97;;;35.36;24.41
46412;BME280;32113;42.012;24.870;2022-07-29T12:21:53;98869.22;;;35.60;24.46
46412;BME280;32113;42.012;24.870;2022-07-29T12:24:19;98867.03;;;35.79;24.13
46412;BME280;32113;42.012;24.870;2022-07-29T12:26:53;98866.38;;;35.92;23.74
46412;BME280;32113;42.012;24.870;2022-07-29T12:29:19;98861.78;;;36.00;23.61
46412;BME280;32113;42.012;24.870;2022-07-29T12:31:45;98850.09;;;36.16;23.78
46412;BME280;32113;42.012;24.870;2022-07-29T12:34:15;98863.97;;;36.12;23.06
46412;BME280;32113;42.012;24.870;2022-07-29T12:36:42;98853.97;;;35.84;22.96
46412;BME280;32113;42.012;24.870;2022-07-29T12:39:08;98855.81;;;35.83;23.85
46412;BME280;32113;42.012;24.870;2022-07-29T12:41:34;98862.81;;;35.84;23.57
46412;BME280;32113;42.012;24.870;2022-07-29T12:44:00;98854.81;;;35.84;24.08
46412;BME280;32113;42.012;24.870;2022-07-29T12:46:26;98843.78;;;35.87;23.58
46412;BME280;32113;42.012;24.870;2022-07-29T12:48:53;98850.09;;;36.01;23.66
46412;BME280;32113;42.012;24.870;2022-07-29T12:51:36;98846.09;;;36.12;23.30
46412;BME280;32113;42.012;24.870;2022-07-29T12:54:07;98849.81;;;36.11;22.99
46412;BME280;32113;42.012;24.870;2022-07-29T12:56:34;98846.03;;;36.21;23.04
46412;BME280;32113;42.012;24.870;2022-07-29T12:58:59;98842.91;;;36.17;23.03
46412;BME280;32113;42.012;24.870;2022-07-29T13:01:25;98838.91;;;36.13;23.30
46412;BME280;32113;42.012;24.870;2022-07-29T13:03:57;98824.75;;;36.12;22.78
46412;BME280;32113;42.012;24.870;2022-07-29T13:11:46;98824.97;;;35.50;25.44
46412;BME280;32113;42.012;24.870;2022-07-29T13:14:28;98822.94;;;35.22;24.81
46412;BME280;32113;42.012;24.870;2022-07-29T13:19:37;98813.28;;;35.21;24.26
46412;BME280;32113;42.012;24.870;2022-07-29T13:22:04;98810.91;;;35.27;24.75
46412;BME280;32113;42.012;24.870;2022-07-29T13:24:29;98813.78;;;35.40;24.93
46412;BME280;32113;42.012;24.870;2022-07-29T13:26:55;98808.44;;;35.55;23.75
46412;BME280;32113;42.012;24.870;2022-07-29T13:29:20;98814.59;;;35.41;24.19
46412;BME280;32113;42.012;24.870;2022-07-29T13:31:46;98814.22;;;35.44;24.28
46412;BME280;32113;42.012;24.870;2022-07-29T13:34:11;98809.50;;;35.16;24.56
46412;BME280;32113;42.012;24.870;2022-07-29T13:36:36;98801.72;;;35.29;24.26
46412;BME280;32113;42.012;24.870;2022-07-29T13:39:02;98806.41;;;35.27;24.70
46412;BME280;32113;42.012;24.870;2022-07-29T13:41:28;98790.25;;;35.29;24.45
46412;BME280;32113;42.012;24.870;2022-07-29T13:43:54;98799.69;;;35.46;24.96
46412;BME280;32113;42.012;24.870;2022-07-29T13:46:19;98783.06;;;35.29;24.90
46412;BME280;32113;42.012;24.870;2022-07-29T13:48:45;98792.53;;;35.32;24.39
46412;BME280;32113;42.012;24.870;2022-07-29T13:51:10;98785.78;;;35.21;24.88
46412;BME280;32113;42.012;24.870;2022-07-29T13:53:36;98781.91;;;35.08;25.26
46412;BME280;32113;42.012;24.870;2022-07-29T13:56:01;98779.56;;;35.14;25.53
46412;BME280;32113;42.012;24.870;2022-07-29T13:58:27;98777.53;;;35.31;25.43
46412;BME280;32113;42.012;24.870;2022-07-29T14:00:52;98777.72;;;35.44;25.10
46412;BME280;32113;42.012;24.870;2022-07-29T14:03:18;98769.53;;;35.31;24.69
46412;BME280;32113;42.012;24.870;2022-07-29T14:05:43;98766.97;;;35.37;24.08